Time;durP1;ratioP1;P1;durP2;ratioP2;P2;SDS_P1;SDS_P2;PMS_P1;PMS_P2;Temp;Humidity;BMP_temperature;BMP_pressure;BME280_temperature;BME280_humidity;BME280_pressure;Samples;Min_cycle;Max_cycle;Signal;HPM_P1;HPM_P2
2023/03/07 00:00:34;;;;;;;0.98;0.98;;;;;;;;;;4976976;28;20452;-84
2023/03/07 00:02:59;;;;;;;1.65;1.10;;;;;;;;;;4977396;28;20088;-85
2023/03/07 00:05:25;;;;;;;1.92;1.13;;;;;;;;;;4994286;28;20375;-84
2023/03/07 00:07:50;;;;;;;1.15;0.90;;;;;;;;;;4976867;28;20118;-84
2023/03/07 00:10:16;;;;;;;1.52;0.90;;;;;;;;;;4994690;28;20161;-85
2023/03/07 00:12:41;;;;;;;2.08;1.10;;;;;;;;;;4994108;28;20034;-83
2023/03/07 00:15:08;;;;;;;0.88;0.80;;;;;;;;;;4977075;28;20519;-84
2023/03/07 00:17:35;;;;;;;1.35;0.90;;;;;;;;;;4977255;28;20066;-84
2023/03/07 00:20:04;;;;;;;1.48;0.93;;;;;;;;;;4976738;28;20125;-84
2023/03/07 00:22:29;;;;;;;3.00;1.00;;;;;;;;;;4977005;28;20050;-85
2023/03/07 00:24:55;;;;;;;1.05;0.95;;;;;;;;;;4976375;28;20517;-83
2023/03/07 00:27:20;;;;;;;1.50;0.93;;;;;;;;;;4976532;28;20034;-84
2023/03/07 00:29:47;;;;;;;1.05;0.95;;;;;;;;;;4976698;28;20034;-85
2023/03/07 00:32:12;;;;;;;1.77;1.00;;;;;;;;;;4976516;28;20152;-84
2023/03/07 00:34:38;;;;;;;1.85;0.90;;;;;;;;;;4993725;28;20030;-84
2023/03/07 00:37:03;;;;;;;1.40;1.05;;;;;;;;;;4960685;28;20449;-84
2023/03/07 00:39:29;;;;;;;1.65;1.00;;;;;;;;;;4993674;28;20548;-85
2023/03/07 00:41:54;;;;;;;2.53;1.20;;;;;;;;;;4976746;28;20027;-84
2023/03/07 00:44:19;;;;;;;2.17;1.33;;;;;;;;;;4976276;28;20080;-85
2023/03/07 00:46:45;;;;;;;3.15;1.10;;;;;;;;;;4992345;28;20030;-85
2023/03/07 00:49:10;;;;;;;1.83;1.10;;;;;;;;;;4993546;28;20141;-86
2023/03/07 00:51:36;;;;;;;1.00;0.90;;;;;;;;;;4993341;28;20038;-86
2023/03/07 00:54:01;;;;;;;1.52;1.10;;;;;;;;;;4993707;28;20037;-85
2023/03/07 00:56:26;;;;;;;2.03;1.02;;;;;;;;;;4976089;28;20408;-85
2023/03/07 00:58:52;;;;;;;1.25;1.13;;;;;;;;;;4976328;28;20397;-85
2023/03/07 01:01:20;;;;;;;2.13;1.20;;;;;;;;;;4993373;28;20026;-85
2023/03/07 01:03:48;;;;;;;1.35;0.90;;;;;;;;;;4959854;28;20549;-86
2023/03/07 01:06:16;;;;;;;2.20;1.20;;;;;;;;;;4976762;28;20038;-84
2023/03/07 01:08:42;;;;;;;1.63;1.00;;;;;;;;;;4975878;28;20497;-86
2023/03/07 01:11:08;;;;;;;1.08;1.00;;;;;;;;;;4976127;28;20070;-87
2023/03/07 01:13:34;;;;;;;1.92;1.10;;;;;;;;;;4976176;28;20041;-86
2023/03/07 01:16:32;;;;;;;2.55;1.10;;;;;;;;;;4975847;28;20037;-86
2023/03/07 01:19:00;;;;;;;2.38;1.13;;;;;;;;;;4991541;28;20073;-87
2023/03/07 01:21:30;;;;;;;2.50;0.90;;;;;;;;;;4975899;28;20018;-87
2023/03/07 01:23:56;;;;;;;1.70;1.00;;;;;;;;;;4992028;28;20101;-86
2023/03/07 01:26:24;;;;;;;3.58;1.10;;;;;;;;;;4975989;28;20069;-86
2023/03/07 01:28:54;;;;;;;1.45;1.10;;;;;;;;;;4975975;28;20026;-87
2023/03/07 01:31:20;;;;;;;2.90;1.20;;;;;;;;;;4976036;28;20129;-87
2023/03/07 01:33:50;;;;;;;2.38;1.02;;;;;;;;;;4975990;28;20061;-88
2023/03/07 01:36:18;;;;;;;2.53;1.15;;;;;;;;;;4961844;28;20084;-88
2023/03/07 01:38:44;;;;;;;5.95;0.80;;;;;;;;;;4975714;28;20424;-87
2023/03/07 01:41:10;;;;;;;1.38;0.93;;;;;;;;;;4959650;28;20384;-87
2023/03/07 01:43:36;;;;;;;1.13;0.80;;;;;;;;;;4993054;28;20026;-86
2023/03/07 01:46:16;;;;;;;4.32;0.93;;;;;;;;;;4992933;28;20045;-87
2023/03/07 01:48:56;;;;;;;3.00;1.30;;;;;;;;;;4975557;28;20407;-87
2023/03/07 01:51:21;;;;;;;2.65;1.30;;;;;;;;;;4975588;28;20033;-87
2023/03/07 01:53:50;;;;;;;1.85;0.80;;;;;;;;;;4993274;28;20030;-87
2023/03/07 01:56:16;;;;;;;1.42;1.00;;;;;;;;;;4975574;28;20033;-87
2023/03/07 01:58:42;;;;;;;1.50;0.80;;;;;;;;;;4943892;28;20030;-86
2023/03/07 02:01:10;;;;;;;2.60;0.95;;;;;;;;;;4975415;28;20034;-87
2023/03/07 02:03:40;;;;;;;2.95;0.90;;;;;;;;;;4978468;28;20485;-87
2023/03/07 02:06:09;;;;;;;2.45;1.00;;;;;;;;;;4979559;28;20046;-87
2023/03/07 02:08:36;;;;;;;1.60;0.98;;;;;;;;;;4979630;28;20046;-87
2023/03/07 02:11:01;;;;;;;1.45;0.88;;;;;;;;;;4979346;28;20452;-86
2023/03/07 02:13:27;;;;;;;0.90;0.80;;;;;;;;;;4979374;28;20034;-87
2023/03/07 02:15:52;;;;;;;1.88;1.17;;;;;;;;;;4978997;28;20031;-86
2023/03/07 02:18:20;;;;;;;1.23;0.75;;;;;;;;;;4979274;28;20082;-86
2023/03/07 02:20:54;;;;;;;0.82;0.70;;;;;;;;;;4962802;28;20405;-86
2023/03/07 02:23:33;;;;;;;0.70;0.70;;;;;;;;;;4996853;28;20110;-88
2023/03/07 02:26:10;;;;;;;1.13;1.00;;;;;;;;;;4979170;28;20026;-88
2023/03/07 02:28:35;;;;;;;1.63;0.88;;;;;;;;;;4978970;28;20038;-87
2023/03/07 02:31:03;;;;;;;2.05;0.70;;;;;;;;;;4962851;28;20038;-87
2023/03/07 02:33:29;;;;;;;0.85;0.70;;;;;;;;;;4979084;28;20030;-86
2023/03/07 02:36:02;;;;;;;1.90;0.52;;;;;;;;;;4971372;28;20045;-87
2023/03/07 02:38:28;;;;;;;1.38;0.57;;;;;;;;;;4962604;28;20425;-86
2023/03/07 02:40:54;;;;;;;1.90;0.80;;;;;;;;;;4978458;28;20034;-87
2023/03/07 02:43:20;;;;;;;2.00;0.93;;;;;;;;;;4978472;28;20033;-86
2023/03/07 02:45:46;;;;;;;1.70;0.80;;;;;;;;;;4978336;28;20035;-87
2023/03/07 02:48:12;;;;;;;2.30;0.85;;;;;;;;;;4978563;28;20033;-87
2023/03/07 02:50:38;;;;;;;1.35;0.85;;;;;;;;;;4978352;28;20034;-87
2023/03/07 02:53:03;;;;;;;4.88;0.85;;;;;;;;;;4975916;28;20487;-87
2023/03/07 02:55:29;;;;;;;3.35;1.00;;;;;;;;;;4998543;28;20081;-88
2023/03/07 02:57:54;;;;;;;1.77;0.98;;;;;;;;;;4978355;28;20034;-87
2023/03/07 03:00:20;;;;;;;3.95;0.82;;;;;;;;;;4996031;28;20030;-87
2023/03/07 03:02:45;;;;;;;2.63;0.80;;;;;;;;;;4995490;28;20040;-87
2023/03/07 03:05:11;;;;;;;3.05;0.73;;;;;;;;;;4978611;28;20041;-88
2023/03/07 03:07:36;;;;;;;3.13;1.13;;;;;;;;;;4978354;28;20465;-88
2023/03/07 03:10:03;;;;;;;1.88;0.77;;;;;;;;;;4997115;28;20027;-89
2023/03/07 03:12:28;;;;;;;1.23;0.70;;;;;;;;;;4974923;28;20054;-88
2023/03/07 03:14:54;;;;;;;3.05;1.13;;;;;;;;;;4990866;28;20469;-89
2023/03/07 03:17:19;;;;;;;1.95;0.75;;;;;;;;;;4995732;28;20042;-89
2023/03/07 03:19:45;;;;;;;2.30;1.00;;;;;;;;;;4995448;28;20040;-88
2023/03/07 03:22:10;;;;;;;3.22;1.25;;;;;;;;;;4995822;28;20026;-89
2023/03/07 03:24:39;;;;;;;1.60;1.05;;;;;;;;;;4977827;28;20116;-89
2023/03/07 03:27:05;;;;;;;2.80;1.00;;;;;;;;;;4978415;28;20053;-89
2023/03/07 03:29:30;;;;;;;1.35;0.82;;;;;;;;;;4977570;28;20034;-88
2023/03/07 03:31:56;;;;;;;1.70;0.90;;;;;;;;;;4977640;28;20026;-89
2023/03/07 03:34:21;;;;;;;1.60;0.93;;;;;;;;;;4994902;28;20544;-87
2023/03/07 03:36:46;;;;;;;1.35;0.90;;;;;;;;;;4994934;28;20041;-87
2023/03/07 03:39:13;;;;;;;3.75;1.00;;;;;;;;;;4961481;28;20346;-87
2023/03/07 03:41:38;;;;;;;1.60;0.95;;;;;;;;;;4994804;28;20549;-86
2023/03/07 03:44:04;;;;;;;3.50;1.23;;;;;;;;;;4977331;28;20034;-86
2023/03/07 03:46:29;;;;;;;3.80;0.82;;;;;;;;;;4994627;28;20065;-87
2023/03/07 03:48:55;;;;;;;3.35;1.23;;;;;;;;;;4994724;28;20500;-87
2023/03/07 03:51:21;;;;;;;1.70;0.77;;;;;;;;;;4994759;28;20038;-87
2023/03/07 03:53:47;;;;;;;1.08;0.60;;;;;;;;;;4961034;28;20033;-88
2023/03/07 03:56:14;;;;;;;1.67;0.75;;;;;;;;;;4976008;28;20027;-88
2023/03/07 03:58:40;;;;;;;2.15;0.90;;;;;;;;;;4977462;28;20065;-89
2023/03/07 04:01:08;;;;;;;1.42;0.70;;;;;;;;;;4976915;28;20137;-89
2023/03/07 04:03:35;;;;;;;1.52;0.73;;;;;;;;;;4993367;28;20089;-87
2023/03/07 04:06:09;;;;;;;2.13;0.70;;;;;;;;;;4996069;28;20026;-90
2023/03/07 04:08:36;;;;;;;1.95;1.00;;;;;;;;;;4962208;28;20057;-89
2023/03/07 04:11:01;;;;;;;2.70;0.88;;;;;;;;;;4978589;28;20035;-90
2023/03/07 04:13:27;;;;;;;1.70;0.77;;;;;;;;;;4972039;28;20469;-90
2023/03/07 04:15:56;;;;;;;1.83;0.80;;;;;;;;;;5000222;28;20046;-87
2023/03/07 04:18:22;;;;;;;2.05;0.80;;;;;;;;;;4977827;28;20041;-89
2023/03/07 04:20:51;;;;;;;3.80;0.90;;;;;;;;;;4979380;28;20100;-85
2023/03/07 04:23:18;;;;;;;1.30;0.70;;;;;;;;;;4981622;28;20042;-89
2023/03/07 04:25:48;;;;;;;2.00;0.93;;;;;;;;;;4993032;28;20030;-88
2023/03/07 04:28:15;;;;;;;1.70;0.80;;;;;;;;;;4976733;28;20521;-88
2023/03/07 04:30:40;;;;;;;1.90;0.90;;;;;;;;;;4976493;28;20061;-88
2023/03/07 04:33:06;;;;;;;1.85;1.00;;;;;;;;;;4974564;28;20054;-88
2023/03/07 04:35:31;;;;;;;2.40;0.90;;;;;;;;;;4974535;28;20043;-88
2023/03/07 04:37:57;;;;;;;1.58;0.75;;;;;;;;;;4974745;28;20442;-90
2023/03/07 04:40:22;;;;;;;0.98;0.68;;;;;;;;;;4973282;28;20053;-89
2023/03/07 04:42:47;;;;;;;0.88;0.63;;;;;;;;;;4973487;28;20390;-89
2023/03/07 04:45:13;;;;;;;1.83;0.82;;;;;;;;;;4974475;28;20057;-88
2023/03/07 04:47:38;;;;;;;1.98;0.90;;;;;;;;;;4974632;28;20099;-89
2023/03/07 04:50:04;;;;;;;0.82;0.68;;;;;;;;;;4973442;28;20030;-90
2023/03/07 04:52:30;;;;;;;1.40;0.88;;;;;;;;;;4974828;28;20564;-88
2023/03/07 04:54:55;;;;;;;1.80;0.80;;;;;;;;;;4975111;28;20035;-87
2023/03/07 04:57:21;;;;;;;4.15;0.88;;;;;;;;;;4973012;28;20121;-87
2023/03/07 04:59:46;;;;;;;2.25;0.95;;;;;;;;;;4957188;28;20130;-86
2023/03/07 05:02:12;;;;;;;1.50;0.90;;;;;;;;;;4973637;28;20063;-89
2023/03/07 05:04:37;;;;;;;2.45;1.02;;;;;;;;;;4956927;28;20090;-89
2023/03/07 05:07:04;;;;;;;1.67;0.80;;;;;;;;;;4972808;28;20031;-89
2023/03/07 05:09:29;;;;;;;2.10;1.00;;;;;;;;;;4957471;28;20541;-94
2023/03/07 05:11:54;;;;;;;3.50;0.60;;;;;;;;;;4974419;28;20027;-84
2023/03/07 05:14:20;;;;;;;2.47;1.08;;;;;;;;;;4974764;28;20031;-87
2023/03/07 05:16:45;;;;;;;3.60;0.80;;;;;;;;;;4973566;28;20034;-86
2023/03/07 05:19:12;;;;;;;3.22;1.00;;;;;;;;;;4972908;28;20035;-86
2023/03/07 05:21:39;;;;;;;4.57;1.30;;;;;;;;;;4973316;28;20023;-85
2023/03/07 05:24:07;;;;;;;2.10;0.80;;;;;;;;;;4973043;28;20035;-85
2023/03/07 05:26:33;;;;;;;2.72;0.70;;;;;;;;;;4956949;28;20031;-84
2023/03/07 05:28:58;;;;;;;4.28;1.00;;;;;;;;;;4973813;28;20411;-87
2023/03/07 05:31:24;;;;;;;3.72;0.90;;;;;;;;;;4974682;28;20023;-87
2023/03/07 05:33:50;;;;;;;7.40;1.02;;;;;;;;;;4974839;28;20035;-86
2023/03/07 05:36:16;;;;;;;2.88;0.90;;;;;;;;;;4956213;28;20572;-85
2023/03/07 05:38:41;;;;;;;2.67;0.93;;;;;;;;;;4960507;28;20035;-86
2023/03/07 05:41:06;;;;;;;6.63;1.20;;;;;;;;;;4976347;28;20066;-88
2023/03/07 05:43:32;;;;;;;6.63;1.70;;;;;;;;;;4977546;28;20374;-89
2023/03/07 05:45:57;;;;;;;7.85;2.08;;;;;;;;;;4977661;28;20518;-88
2023/03/07 05:48:23;;;;;;;5.30;1.88;;;;;;;;;;4977740;28;20545;-88
2023/03/07 05:50:48;;;;;;;5.53;1.92;;;;;;;;;;4977117;28;20035;-90
2023/03/07 05:53:14;;;;;;;4.45;1.58;;;;;;;;;;4978855;28;20121;-89
2023/03/07 05:55:39;;;;;;;5.55;1.55;;;;;;;;;;4979631;28;20039;-88
2023/03/07 05:58:04;;;;;;;4.63;1.40;;;;;;;;;;4983549;28;20123;-86
2023/03/07 06:00:30;;;;;;;6.30;1.50;;;;;;;;;;4981872;28;20038;-86
2023/03/07 06:02:56;;;;;;;4.50;1.48;;;;;;;;;;4983896;28;20430;-86
2023/03/07 06:05:21;;;;;;;4.28;1.80;;;;;;;;;;4984796;28;20335;-85
2023/03/07 06:07:48;;;;;;;9.70;2.20;;;;;;;;;;4964641;28;20157;-84
2023/03/07 06:10:14;;;;;;;3.75;1.70;;;;;;;;;;4976724;28;20026;-85
2023/03/07 06:12:39;;;;;;;4.68;1.50;;;;;;;;;;4977643;28;20118;-86
2023/03/07 06:15:06;;;;;;;6.72;1.92;;;;;;;;;;4975985;28;20034;-85
2023/03/07 06:17:31;;;;;;;7.97;1.80;;;;;;;;;;4960084;28;20023;-86
2023/03/07 06:19:59;;;;;;;5.18;1.55;;;;;;;;;;4977459;28;20030;-87
2023/03/07 06:22:24;;;;;;;7.35;1.63;;;;;;;;;;4978242;28;20043;-86
2023/03/07 06:24:50;;;;;;;4.85;1.80;;;;;;;;;;4944653;28;20402;-86
2023/03/07 06:27:15;;;;;;;7.10;1.42;;;;;;;;;;4978309;28;20115;-86
2023/03/07 06:29:41;;;;;;;4.53;1.40;;;;;;;;;;4975417;28;20061;-87
2023/03/07 06:32:06;;;;;;;4.03;1.63;;;;;;;;;;4943818;28;20030;-88
2023/03/07 06:34:31;;;;;;;4.75;1.48;;;;;;;;;;4976237;28;20038;-87
2023/03/07 06:36:57;;;;;;;4.65;1.35;;;;;;;;;;4977719;28;20122;-87
2023/03/07 06:39:22;;;;;;;2.97;1.10;;;;;;;;;;4975825;28;20066;-87
2023/03/07 06:41:49;;;;;;;6.90;1.40;;;;;;;;;;4977217;28;20027;-87
2023/03/07 06:44:15;;;;;;;5.10;1.30;;;;;;;;;;4960448;28;20058;-87
2023/03/07 06:46:41;;;;;;;3.95;1.20;;;;;;;;;;4975384;28;20049;-87
2023/03/07 06:49:07;;;;;;;6.80;1.30;;;;;;;;;;4960465;28;20026;-86
2023/03/07 06:51:32;;;;;;;1.88;1.00;;;;;;;;;;4975058;28;20045;-87
2023/03/07 06:53:58;;;;;;;3.78;1.40;;;;;;;;;;4976211;28;20027;-87
2023/03/07 06:56:24;;;;;;;2.65;1.10;;;;;;;;;;4975522;28;20042;-87
2023/03/07 06:58:49;;;;;;;2.95;1.38;;;;;;;;;;4976423;28;20161;-86
2023/03/07 07:01:19;;;;;;;2.70;1.00;;;;;;;;;;4976280;28;20057;-86
2023/03/07 07:03:44;;;;;;;2.53;1.08;;;;;;;;;;4976730;28;20039;-87
2023/03/07 07:06:10;;;;;;;1.80;0.90;;;;;;;;;;4977156;28;20030;-87
2023/03/07 07:08:35;;;;;;;4.65;1.05;;;;;;;;;;4959190;28;20055;-87
2023/03/07 07:11:01;;;;;;;3.63;1.27;;;;;;;;;;4975236;28;20034;-88
2023/03/07 07:13:26;;;;;;;5.63;1.15;;;;;;;;;;4975278;28;20035;-88
2023/03/07 07:15:52;;;;;;;4.13;1.27;;;;;;;;;;4975417;28;20148;-88
2023/03/07 07:18:17;;;;;;;1.70;0.77;;;;;;;;;;4976505;28;20041;-88
2023/03/07 07:20:43;;;;;;;1.08;0.70;;;;;;;;;;4976203;28;20041;-88
2023/03/07 07:23:08;;;;;;;2.67;0.95;;;;;;;;;;4958614;28;20045;-89
2023/03/07 07:25:33;;;;;;;3.78;1.50;;;;;;;;;;4958556;28;20098;-90
2023/03/07 07:27:59;;;;;;;2.08;0.90;;;;;;;;;;4976426;28;20023;-89
2023/03/07 07:30:24;;;;;;;3.67;0.88;;;;;;;;;;4974381;28;20055;-89
2023/03/07 07:32:50;;;;;;;1.88;0.90;;;;;;;;;;4974530;28;20053;-89
2023/03/07 07:35:15;;;;;;;1.45;0.60;;;;;;;;;;4942482;28;20539;-88
2023/03/07 07:37:40;;;;;;;1.17;0.73;;;;;;;;;;4977096;28;20455;-89
2023/03/07 07:40:09;;;;;;;2.35;0.90;;;;;;;;;;4980730;28;20034;-90
2023/03/07 07:42:34;;;;;;;2.40;0.73;;;;;;;;;;4958772;28;20026;-89
2023/03/07 07:45:00;;;;;;;1.15;0.70;;;;;;;;;;4942998;28;20038;-89
2023/03/07 07:47:25;;;;;;;2.28;1.00;;;;;;;;;;4974545;28;20030;-89
2023/03/07 07:49:50;;;;;;;0.47;0.43;;;;;;;;;;4974583;28;20125;-90
2023/03/07 07:52:16;;;;;;;0.65;0.45;;;;;;;;;;4958358;28;20041;-87
2023/03/07 07:54:42;;;;;;;1.48;0.65;;;;;;;;;;4943653;28;20031;-90
2023/03/07 07:57:07;;;;;;;1.95;0.73;;;;;;;;;;4977645;28;20034;-89
2023/03/07 07:59:33;;;;;;;1.45;0.80;;;;;;;;;;4975723;28;20099;-89
2023/03/07 08:01:58;;;;;;;1.33;0.50;;;;;;;;;;4974556;28;20087;-89
2023/03/07 08:04:24;;;;;;;2.22;0.98;;;;;;;;;;4978745;28;20446;-89
2023/03/07 08:06:50;;;;;;;1.50;0.60;;;;;;;;;;4979084;28;20023;-88
2023/03/07 08:09:15;;;;;;;0.70;0.70;;;;;;;;;;4974453;28;20038;-89
2023/03/07 08:11:41;;;;;;;0.95;0.70;;;;;;;;;;4974324;28;20125;-89
2023/03/07 08:14:06;;;;;;;2.40;1.00;;;;;;;;;;4973913;28;20050;-89
2023/03/07 08:16:32;;;;;;;0.95;0.55;;;;;;;;;;4973583;28;20035;-89
2023/03/07 08:18:59;;;;;;;2.25;0.70;;;;;;;;;;4957385;28;20082;-89
2023/03/07 08:21:25;;;;;;;1.90;0.77;;;;;;;;;;4974900;28;20030;-89
2023/03/07 08:23:52;;;;;;;1.35;0.68;;;;;;;;;;4957509;28;20082;-90
2023/03/07 08:26:18;;;;;;;1.30;0.75;;;;;;;;;;4957697;28;20462;-90
2023/03/07 08:28:43;;;;;;;1.33;0.70;;;;;;;;;;4974123;28;20058;-90
2023/03/07 08:31:11;;;;;;;0.82;0.73;;;;;;;;;;4943778;28;20042;-89
2023/03/07 08:33:37;;;;;;;1.15;0.80;;;;;;;;;;4974789;28;20468;-89
2023/03/07 08:36:03;;;;;;;1.65;0.70;;;;;;;;;;4957766;28;20051;-88
2023/03/07 08:38:28;;;;;;;0.60;0.60;;;;;;;;;;4958162;28;20093;-89
2023/03/07 08:40:58;;;;;;;1.33;0.73;;;;;;;;;;4942035;28;20042;-89
2023/03/07 08:43:24;;;;;;;3.10;1.00;;;;;;;;;;4957055;28;20105;-88
2023/03/07 08:45:49;;;;;;;1.20;0.85;;;;;;;;;;4957576;28;20423;-87
2023/03/07 08:48:15;;;;;;;1.00;0.65;;;;;;;;;;4984530;28;20030;-88
2023/03/07 08:50:40;;;;;;;0.82;0.82;;;;;;;;;;4981221;28;20023;-88
2023/03/07 08:53:06;;;;;;;1.30;0.70;;;;;;;;;;4973121;28;20041;-89
2023/03/07 08:55:34;;;;;;;3.05;0.90;;;;;;;;;;4941709;28;20042;-89
2023/03/07 08:57:59;;;;;;;1.10;0.80;;;;;;;;;;4958843;28;20038;-89
2023/03/07 09:00:25;;;;;;;0.80;0.80;;;;;;;;;;4974669;28;20090;-89
2023/03/07 09:02:50;;;;;;;0.77;0.73;;;;;;;;;;4973722;28;20125;-89
2023/03/07 09:05:16;;;;;;;1.48;0.90;;;;;;;;;;4974467;28;20061;-89
2023/03/07 09:07:41;;;;;;;1.13;0.70;;;;;;;;;;4973619;28;20451;-90
2023/03/07 09:10:09;;;;;;;0.60;0.60;;;;;;;;;;4973219;28;20126;-89
2023/03/07 09:12:35;;;;;;;1.42;0.80;;;;;;;;;;4975444;28;20049;-89
2023/03/07 09:15:00;;;;;;;1.00;0.73;;;;;;;;;;4973830;28;20458;-89
2023/03/07 09:17:26;;;;;;;1.10;0.88;;;;;;;;;;4957988;28;20031;-89
2023/03/07 09:19:51;;;;;;;1.27;0.70;;;;;;;;;;4924902;28;20038;-89
2023/03/07 09:22:17;;;;;;;2.33;0.60;;;;;;;;;;4956595;28;20122;-89
2023/03/07 09:24:42;;;;;;;0.80;0.70;;;;;;;;;;4974127;28;20474;-89
2023/03/07 09:27:10;;;;;;;0.75;0.75;;;;;;;;;;4973659;28;20034;-89
2023/03/07 09:29:35;;;;;;;0.60;0.60;;;;;;;;;;4942651;28;20093;-89
2023/03/07 09:32:04;;;;;;;1.30;0.85;;;;;;;;;;4975062;28;20031;-90
2023/03/07 09:34:30;;;;;;;0.70;0.70;;;;;;;;;;4961592;28;20035;-90
2023/03/07 09:36:56;;;;;;;0.60;0.60;;;;;;;;;;4975773;28;20037;-89
2023/03/07 09:39:21;;;;;;;0.80;0.80;;;;;;;;;;4957690;28;20042;-90
2023/03/07 09:42:12;;;;;;;1.10;0.73;;;;;;;;;;4973060;28;20041;-90
2023/03/07 09:44:38;;;;;;;0.75;0.63;;;;;;;;;;4968072;28;20027;-89
2023/03/07 09:47:25;;;;;;;0.70;0.68;;;;;;;;;;4974481;28;20022;-89
2023/03/07 09:49:51;;;;;;;1.02;0.77;;;;;;;;;;4957209;28;20038;-88
2023/03/07 09:52:29;;;;;;;0.90;0.68;;;;;;;;;;4960006;28;20127;-90
2023/03/07 09:55:00;;;;;;;1.33;0.90;;;;;;;;;;4976444;28;20033;-89
2023/03/07 09:57:35;;;;;;;0.65;0.63;;;;;;;;;;4957928;28;20037;-87
2023/03/07 10:00:20;;;;;;;1.30;0.85;;;;;;;;;;4957317;28;20022;-89
2023/03/07 10:03:23;;;;;;;1.25;0.60;;;;;;;;;;4976956;28;20074;-88
2023/03/07 10:05:50;;;;;;;0.77;0.70;;;;;;;;;;4979400;28;20027;-89
2023/03/07 10:08:19;;;;;;;0.75;0.70;;;;;;;;;;4975748;28;20129;-88
2023/03/07 10:11:09;;;;;;;0.85;0.70;;;;;;;;;;4960984;29;20035;-89
2023/03/07 10:13:47;;;;;;;0.93;0.80;;;;;;;;;;4958754;29;20027;-89
2023/03/07 10:16:36;;;;;;;0.95;0.80;;;;;;;;;;4956759;29;20058;-90
2023/03/07 10:19:12;;;;;;;0.63;0.63;;;;;;;;;;4954807;29;20098;-89
2023/03/07 10:22:04;;;;;;;1.17;0.73;;;;;;;;;;4954305;29;20434;-91
2023/03/07 10:24:48;;;;;;;0.68;0.68;;;;;;;;;;4957294;28;20020;-88
2023/03/07 10:27:14;;;;;;;1.13;0.68;;;;;;;;;;4959823;29;20036;-87
2023/03/07 10:29:48;;;;;;;2.00;0.70;;;;;;;;;;4941852;29;20046;-88
2023/03/07 10:32:38;;;;;;;1.48;0.60;;;;;;;;;;4957328;29;20382;-90
2023/03/07 10:35:16;;;;;;;0.85;0.70;;;;;;;;;;4957769;29;20110;-87
2023/03/07 10:37:44;;;;;;;1.63;0.80;;;;;;;;;;4966206;29;20031;-90
2023/03/07 10:40:28;;;;;;;0.98;0.63;;;;;;;;;;4964931;29;20023;-89
2023/03/07 10:42:54;;;;;;;;;;;;;;;;;;4958888;29;20455;-86
2023/03/07 10:45:19;;;;;;;0.50;0.50;;;;;;;;;;4974261;28;19922;-89
2023/03/07 10:47:45;;;;;;;1.35;0.68;;;;;;;;;;4956696;29;20031;-88
2023/03/07 10:50:26;;;;;;;0.40;0.40;;;;;;;;;;4973392;28;20450;-88
2023/03/07 10:52:54;;;;;;;1.85;0.50;;;;;;;;;;4941672;29;20374;-89
2023/03/07 10:55:39;;;;;;;1.08;0.60;;;;;;;;;;4972055;28;20050;-88
2023/03/07 10:58:18;;;;;;;1.02;0.63;;;;;;;;;;4972144;28;20073;-88
2023/03/07 11:00:45;;;;;;;2.65;0.80;;;;;;;;;;4956932;29;20023;-88
2023/03/07 11:03:26;;;;;;;0.45;0.40;;;;;;;;;;4956798;29;20038;-89
2023/03/07 11:05:51;;;;;;;0.50;0.50;;;;;;;;;;4957505;29;20032;-89
2023/03/07 11:08:26;;;;;;;1.20;0.65;;;;;;;;;;4955684;28;20047;-89
2023/03/07 11:10:51;;;;;;;0.85;0.80;;;;;;;;;;4956195;29;20442;-88
2023/03/07 11:13:18;;;;;;;1.42;0.50;;;;;;;;;;4939778;29;20035;-88
2023/03/07 11:15:44;;;;;;;0.70;0.52;;;;;;;;;;4956516;29;20122;-89
2023/03/07 11:18:42;;;;;;;1.10;0.50;;;;;;;;;;4955701;29;20514;-89
2023/03/07 11:21:28;;;;;;;2.53;0.50;;;;;;;;;;4956157;29;20082;-88
2023/03/07 11:24:05;;;;;;;0.75;0.60;;;;;;;;;;4955567;29;20502;-88
2023/03/07 11:26:39;;;;;;;0.65;0.50;;;;;;;;;;4956262;29;20105;-87
2023/03/07 11:29:12;;;;;;;0.75;0.52;;;;;;;;;;4955250;29;20027;-87
2023/03/07 11:32:12;;;;;;;1.45;0.60;;;;;;;;;;4956042;29;20035;-87
2023/03/07 11:35:02;;;;;;;0.77;0.70;;;;;;;;;;4954587;28;20027;-85
2023/03/07 11:37:30;;;;;;;1.63;0.57;;;;;;;;;;4940304;29;20471;-87
2023/03/07 11:40:14;;;;;;;1.48;0.60;;;;;;;;;;4939427;29;20209;-87
2023/03/07 11:42:59;;;;;;;1.40;0.70;;;;;;;;;;4939950;29;20023;-87
2023/03/07 11:45:31;;;;;;;3.03;0.60;;;;;;;;;;4935999;29;20395;-85
2023/03/07 11:48:18;;;;;;;1.52;0.90;;;;;;;;;;4955320;29;20030;-86
2023/03/07 11:50:49;;;;;;;3.42;0.63;;;;;;;;;;4954567;29;20493;-86
2023/03/07 11:53:46;;;;;;;0.65;0.60;;;;;;;;;;4955312;29;20027;-86
2023/03/07 11:56:40;;;;;;;2.45;0.85;;;;;;;;;;4938784;29;20031;-87
2023/03/07 11:59:26;;;;;;;3.08;0.60;;;;;;;;;;4938721;29;20035;-86
2023/03/07 12:01:54;;;;;;;5.82;0.63;;;;;;;;;;4957024;29;20039;-86
2023/03/07 12:04:38;;;;;;;1.70;0.75;;;;;;;;;;4957972;29;20394;-87
2023/03/07 12:07:26;;;;;;;2.60;1.00;;;;;;;;;;4938911;29;20034;-87
2023/03/07 12:10:01;;;;;;;3.78;0.63;;;;;;;;;;4955048;29;20042;-86
2023/03/07 12:12:44;;;;;;;0.82;0.60;;;;;;;;;;4939632;29;20114;-86
2023/03/07 12:15:52;;;;;;;3.03;0.68;;;;;;;;;;4954722;29;20019;-86
2023/03/07 12:18:17;;;;;;;3.40;0.98;;;;;;;;;;4935069;29;20098;-86
2023/03/07 12:21:08;;;;;;;2.78;0.80;;;;;;;;;;4955811;29;20039;-87
2023/03/07 12:23:44;;;;;;;3.20;0.98;;;;;;;;;;4954271;29;20430;-85
2023/03/07 12:26:24;;;;;;;1.23;0.77;;;;;;;;;;4955136;29;20123;-85
2023/03/07 12:28:58;;;;;;;2.05;0.80;;;;;;;;;;4954057;29;20031;-88
2023/03/07 12:31:31;;;;;;;2.03;0.68;;;;;;;;;;4955764;29;20549;-88
2023/03/07 12:34:09;;;;;;;5.80;0.90;;;;;;;;;;4955757;29;20419;-87
2023/03/07 12:36:43;;;;;;;0.90;0.60;;;;;;;;;;4954018;28;20023;-87
2023/03/07 12:39:19;;;;;;;4.05;1.05;;;;;;;;;;4937838;29;20445;-87
2023/03/07 12:42:18;;;;;;;0.93;0.73;;;;;;;;;;4953860;29;20058;-87
2023/03/07 12:44:53;;;;;;;2.38;0.60;;;;;;;;;;4954179;29;20401;-85
2023/03/07 12:47:29;;;;;;;1.02;0.50;;;;;;;;;;4955699;28;20423;-86
2023/03/07 12:50:14;;;;;;;1.67;0.77;;;;;;;;;;4956033;29;20426;-90
2023/03/07 12:52:50;;;;;;;0.32;0.32;;;;;;;;;;4954253;29;20039;-88
2023/03/07 12:55:15;;;;;;;1.98;0.85;;;;;;;;;;4955396;29;20456;-89
2023/03/07 12:57:43;;;;;;;1.25;0.70;;;;;;;;;;4957870;29;20060;-88
2023/03/07 13:00:12;;;;;;;1.52;0.60;;;;;;;;;;4938683;29;20471;-87
2023/03/07 13:02:52;;;;;;;1.40;0.80;;;;;;;;;;4937474;29;20416;-88
2023/03/07 13:05:19;;;;;;;3.42;0.90;;;;;;;;;;4953669;29;20023;-87
2023/03/07 13:07:46;;;;;;;1.48;0.60;;;;;;;;;;4959991;28;20069;-86
2023/03/07 13:10:17;;;;;;;0.60;0.55;;;;;;;;;;4973012;28;20344;-89
2023/03/07 13:12:43;;;;;;;1.35;0.90;;;;;;;;;;4973152;28;20470;-89
2023/03/07 13:15:31;;;;;;;1.00;0.70;;;;;;;;;;4974673;28;20046;-88
2023/03/07 13:17:58;;;;;;;2.67;0.80;;;;;;;;;;4972941;28;20486;-87
2023/03/07 13:20:26;;;;;;;1.30;0.70;;;;;;;;;;4942206;28;20045;-86
2023/03/07 13:22:52;;;;;;;1.77;0.65;;;;;;;;;;4974832;28;20158;-86
2023/03/07 13:25:27;;;;;;;1.23;0.70;;;;;;;;;;4974554;28;20101;-88
2023/03/07 13:27:58;;;;;;;0.45;0.45;;;;;;;;;;4973133;28;20559;-88
2023/03/07 13:30:30;;;;;;;0.85;0.70;;;;;;;;;;4974206;28;20422;-87
2023/03/07 13:33:14;;;;;;;1.42;0.80;;;;;;;;;;4957679;28;20027;-87
2023/03/07 13:36:00;;;;;;;;;;;;;;;;;;4974439;28;20046;-86
2023/03/07 13:38:51;;;;;;;1.13;0.70;;;;;;;;;;4973518;28;19913;-82
2023/03/07 13:41:48;;;;;;;0.93;0.65;;;;;;;;;;4970503;28;20046;-79
2023/03/07 13:44:38;;;;;;;4.82;0.88;;;;;;;;;;4956638;28;20426;-82
2023/03/07 13:47:40;;;;;;;1.20;0.68;;;;;;;;;;4972697;28;20095;-80
2023/03/07 13:50:44;;;;;;;3.80;0.60;;;;;;;;;;4956292;28;20035;-80
2023/03/07 13:53:13;;;;;;;1.38;0.65;;;;;;;;;;4960042;28;20094;-81
2023/03/07 13:55:43;;;;;;;3.83;0.82;;;;;;;;;;4956608;28;20117;-80
2023/03/07 13:58:20;;;;;;;1.17;0.77;;;;;;;;;;4972435;28;20109;-80
2023/03/07 14:00:52;;;;;;;3.13;1.05;;;;;;;;;;4992784;28;20089;-80
2023/03/07 14:03:25;;;;;;;2.83;0.63;;;;;;;;;;4976847;28;20470;-80
2023/03/07 14:05:51;;;;;;;1.00;0.90;;;;;;;;;;4978865;28;20529;-81
2023/03/07 14:08:19;;;;;;;1.42;0.70;;;;;;;;;;4977236;28;20046;-80
2023/03/07 14:10:46;;;;;;;2.13;0.90;;;;;;;;;;4977697;28;20164;-80
2023/03/07 14:13:37;;;;;;;0.75;0.60;;;;;;;;;;4977216;28;20023;-81
2023/03/07 14:16:25;;;;;;;1.75;0.77;;;;;;;;;;4977067;28;20109;-80
2023/03/07 14:19:03;;;;;;;1.45;0.70;;;;;;;;;;4959779;28;20477;-81
2023/03/07 14:21:37;;;;;;;0.60;0.60;;;;;;;;;;4959976;28;20414;-81
2023/03/07 14:24:11;;;;;;;1.80;0.70;;;;;;;;;;4976782;28;20033;-81
2023/03/07 14:26:47;;;;;;;4.50;0.80;;;;;;;;;;4975142;28;20097;-82
2023/03/07 14:29:21;;;;;;;2.63;0.95;;;;;;;;;;4959274;28;20022;-81
2023/03/07 14:31:47;;;;;;;;;;;;;;;;;;4959714;28;20054;-80
2023/03/07 14:34:27;;;;;;;3.90;0.60;;;;;;;;;;4977179;28;19955;-80
2023/03/07 14:37:03;;;;;;;7.68;0.60;;;;;;;;;;4976894;28;20070;-81
2023/03/07 14:39:41;;;;;;;1.52;0.60;;;;;;;;;;4959905;28;20038;-80
2023/03/07 14:42:13;;;;;;;1.30;0.60;;;;;;;;;;4978030;28;20026;-81
2023/03/07 14:45:02;;;;;;;1.63;0.60;;;;;;;;;;4977483;28;20053;-81
2023/03/07 14:47:46;;;;;;;4.75;0.45;;;;;;;;;;4976604;28;20022;-82
2023/03/07 14:50:12;;;;;;;1.05;0.70;;;;;;;;;;4977140;28;20030;-82
2023/03/07 14:52:37;;;;;;;0.77;0.55;;;;;;;;;;4958990;28;20058;-81
2023/03/07 14:55:04;;;;;;;1.10;0.60;;;;;;;;;;4943723;28;20030;-82
2023/03/07 14:57:36;;;;;;;1.65;0.70;;;;;;;;;;4975513;28;20034;-81
2023/03/07 15:00:18;;;;;;;1.13;0.70;;;;;;;;;;4959396;28;20030;-80